sensor_id;sensor_type;location;lat;lon;timestamp;pressure;altitude;pressure_sealevel;temperature;humidity
50394;BME280;36308;46.312;25.288;2023-05-02T00:00:42;96536.59;;;8.23;56.89
50394;BME280;36308;46.312;25.288;2023-05-02T00:03:10;96528.44;;;8.18;57.01
50394;BME280;36308;46.312;25.288;2023-05-02T00:05:36;96529.09;;;8.13;56.97
50394;BME280;36308;46.312;25.288;2023-05-02T00:08:01;96535.16;;;8.08;57.20
50394;BME280;36308;46.312;25.288;2023-05-02T00:10:27;96523.25;;;8.04;57.43
50394;BME280;36308;46.312;25.288;2023-05-02T00:12:52;96533.88;;;7.99;57.22
50394;BME280;36308;46.312;25.288;2023-05-02T00:15:18;96530.22;;;7.94;57.38
50394;BME280;36308;46.312;25.288;2023-05-02T00:17:43;96531.72;;;7.89;57.55
50394;BME280;36308;46.312;25.288;2023-05-02T00:20:09;96537.78;;;7.85;57.48
50394;BME280;36308;46.312;25.288;2023-05-02T00:22:36;96542.53;;;7.83;57.62
50394;BME280;36308;46.312;25.288;2023-05-02T00:25:02;96548.59;;;7.78;57.71
50394;BME280;36308;46.312;25.288;2023-05-02T00:27:29;96551.91;;;7.74;57.85
50394;BME280;36308;46.312;25.288;2023-05-02T00:29:55;96544.34;;;7.71;57.84
50394;BME280;36308;46.312;25.288;2023-05-02T00:32:20;96544.78;;;7.67;57.96
50394;BME280;36308;46.312;25.288;2023-05-02T00:34:46;96547.72;;;7.66;57.93
50394;BME280;36308;46.312;25.288;2023-05-02T00:37:11;96549.44;;;7.60;58.02
50394;BME280;36308;46.312;25.288;2023-05-02T00:39:37;96560.34;;;7.59;58.01
50394;BME280;36308;46.312;25.288;2023-05-02T00:42:03;96555.69;;;7.54;58.20
50394;BME280;36308;46.312;25.288;2023-05-02T00:44:29;96554.50;;;7.50;58.26
50394;BME280;36308;46.312;25.288;2023-05-02T00:46:55;96557.84;;;7.45;58.24
50394;BME280;36308;46.312;25.288;2023-05-02T00:49:21;96557.47;;;7.42;58.37
50394;BME280;36308;46.312;25.288;2023-05-02T00:51:46;96561.22;;;7.41;58.56
50394;BME280;36308;46.312;25.288;2023-05-02T00:54:12;96560.84;;;7.37;58.69
50394;BME280;36308;46.312;25.288;2023-05-02T00:56:38;96558.84;;;7.33;58.49
50394;BME280;36308;46.312;25.288;2023-05-02T00:59:06;96560.91;;;7.31;58.41
50394;BME280;36308;46.312;25.288;2023-05-02T01:04:42;96558.06;;;7.25;58.77
50394;BME280;36308;46.312;25.288;2023-05-02T01:10:08;96561.06;;;7.17;58.59
50394;BME280;36308;46.312;25.288;2023-05-02T01:13:03;96565.22;;;7.13;58.92
50394;BME280;36308;46.312;25.288;2023-05-02T01:15:33;96548.78;;;7.09;58.92
50394;BME280;36308;46.312;25.288;2023-05-02T01:18:00;96552.72;;;7.07;58.94
50394;BME280;36308;46.312;25.288;2023-05-02T01:20:29;96546.19;;;7.03;59.16
50394;BME280;36308;46.312;25.288;2023-05-02T01:22:59;96562.22;;;7.03;59.04
50394;BME280;36308;46.312;25.288;2023-05-02T01:30:54;96562.53;;;6.95;59.55
50394;BME280;36308;46.312;25.288;2023-05-02T01:33:21;96551.47;;;6.91;59.24
50394;BME280;36308;46.312;25.288;2023-05-02T01:35:52;96560.97;;;6.87;59.44
50394;BME280;36308;46.312;25.288;2023-05-02T01:38:18;96563.25;;;6.83;59.74
50394;BME280;36308;46.312;25.288;2023-05-02T01:40:46;96555.91;;;6.79;59.82
50394;BME280;36308;46.312;25.288;2023-05-02T01:43:15;96547.50;;;6.75;59.68
50394;BME280;36308;46.312;25.288;2023-05-02T01:45:43;96549.59;;;6.73;59.73
50394;BME280;36308;46.312;25.288;2023-05-02T01:48:09;96547.59;;;6.68;59.79
50394;BME280;36308;46.312;25.288;2023-05-02T01:50:37;96549.66;;;6.66;59.78
50394;BME280;36308;46.312;25.288;2023-05-02T01:53:06;96538.59;;;6.63;60.08
50394;BME280;36308;46.312;25.288;2023-05-02T01:55:34;96550.75;;;6.59;59.98
50394;BME280;36308;46.312;25.288;2023-05-02T01:58:01;96555.50;;;6.57;60.24
50394;BME280;36308;46.312;25.288;2023-05-02T02:00:28;96553.28;;;6.54;59.79
50394;BME280;36308;46.312;25.288;2023-05-02T02:02:55;96552.66;;;6.52;60.03
50394;BME280;36308;46.312;25.288;2023-05-02T02:05:22;96556.34;;;6.51;59.94
50394;BME280;36308;46.312;25.288;2023-05-02T02:07:48;96551.47;;;6.47;60.17
50394;BME280;36308;46.312;25.288;2023-05-02T02:10:14;96557.22;;;6.44;60.37
50394;BME280;36308;46.312;25.288;2023-05-02T02:12:49;96567.31;;;6.42;60.07
50394;BME280;36308;46.312;25.288;2023-05-02T02:15:25;96556.47;;;6.37;60.61
50394;BME280;36308;46.312;25.288;2023-05-02T02:18:13;96567.16;;;6.37;59.87
50394;BME280;36308;46.312;25.288;2023-05-02T02:20:41;96567.59;;;6.34;60.70
50394;BME280;36308;46.312;25.288;2023-05-02T02:23:07;96562.69;;;6.31;60.71
50394;BME280;36308;46.312;25.288;2023-05-02T02:25:34;96565.78;;;6.28;60.42
50394;BME280;36308;46.312;25.288;2023-05-02T02:28:00;96563.31;;;6.26;60.10
50394;BME280;36308;46.312;25.288;2023-05-02T02:30:26;96567.25;;;6.24;60.90
50394;BME280;36308;46.312;25.288;2023-05-02T02:32:51;96565.03;;;6.21;60.47
50394;BME280;36308;46.312;25.288;2023-05-02T02:35:17;96564.44;;;6.19;60.84
50394;BME280;36308;46.312;25.288;2023-05-02T02:38:25;96564.84;;;6.16;61.10
50394;BME280;36308;46.312;25.288;2023-05-02T02:40:55;96576.56;;;6.15;60.46
50394;BME280;36308;46.312;25.288;2023-05-02T02:48:40;96570.69;;;6.06;60.87
50394;BME280;36308;46.312;25.288;2023-05-02T02:53:59;96583.03;;;6.00;60.96
50394;BME280;36308;46.312;25.288;2023-05-02T02:56:31;96580.56;;;5.99;60.58
50394;BME280;36308;46.312;25.288;2023-05-02T02:59:04;96577.50;;;5.95;60.87
50394;BME280;36308;46.312;25.288;2023-05-02T03:01:32;96584.28;;;5.91;61.02
50394;BME280;36308;46.312;25.288;2023-05-02T03:03:59;96575.06;;;5.87;60.84
50394;BME280;36308;46.312;25.288;2023-05-02T03:06:26;96578.78;;;5.86;61.28
50394;BME280;36308;46.312;25.288;2023-05-02T03:08:51;96588.22;;;5.82;60.98
50394;BME280;36308;46.312;25.288;2023-05-02T03:11:17;96592.97;;;5.80;60.96
50394;BME280;36308;46.312;25.288;2023-05-02T03:13:42;96595.03;;;5.78;61.45
50394;BME280;36308;46.312;25.288;2023-05-02T03:16:28;96593.00;;;5.73;61.23
50394;BME280;36308;46.312;25.288;2023-05-02T03:18:55;96594.22;;;5.71;61.71
50394;BME280;36308;46.312;25.288;2023-05-02T03:21:21;96602.47;;;5.69;61.29
50394;BME280;36308;46.312;25.288;2023-05-02T03:23:46;96605.34;;;5.67;61.44
50394;BME280;36308;46.312;25.288;2023-05-02T03:26:12;96607.41;;;5.65;61.50
50394;BME280;36308;46.312;25.288;2023-05-02T03:28:37;96604.13;;;5.63;61.64
50394;BME280;36308;46.312;25.288;2023-05-02T03:31:03;96611.53;;;5.61;61.57
50394;BME280;36308;46.312;25.288;2023-05-02T03:33:28;96604.56;;;5.60;62.06
50394;BME280;36308;46.312;25.288;2023-05-02T03:35:54;96612.78;;;5.59;61.74
50394;BME280;36308;46.312;25.288;2023-05-02T03:38:19;96614.63;;;5.58;62.13
50394;BME280;36308;46.312;25.288;2023-05-02T03:40:45;96611.97;;;5.58;62.14
50394;BME280;36308;46.312;25.288;2023-05-02T03:43:10;96612.78;;;5.59;62.06
50394;BME280;36308;46.312;25.288;2023-05-02T03:45:36;96617.69;;;5.55;62.76
50394;BME280;36308;46.312;25.288;2023-05-02T03:48:01;96614.84;;;5.57;62.68
50394;BME280;36308;46.312;25.288;2023-05-02T03:50:27;96623.44;;;5.59;62.54
50394;BME280;36308;46.312;25.288;2023-05-02T03:52:53;96622.63;;;5.58;62.46
50394;BME280;36308;46.312;25.288;2023-05-02T03:55:18;96627.53;;;5.61;62.54
50394;BME280;36308;46.312;25.288;2023-05-02T03:57:44;96631.25;;;5.60;63.12
50394;BME280;36308;46.312;25.288;2023-05-02T04:00:10;96628.13;;;5.63;62.75
50394;BME280;36308;46.312;25.288;2023-05-02T04:02:36;96628.75;;;5.65;63.04
50394;BME280;36308;46.312;25.288;2023-05-02T04:05:01;96628.75;;;5.65;62.96
50394;BME280;36308;46.312;25.288;2023-05-02T04:07:26;96633.66;;;5.69;63.67
50394;BME280;36308;46.312;25.288;2023-05-02T04:09:52;96627.91;;;5.72;63.58
50394;BME280;36308;46.312;25.288;2023-05-02T04:12:19;96635.69;;;5.73;63.32
50394;BME280;36308;46.312;25.288;2023-05-02T04:14:44;96637.13;;;5.76;64.03
50394;BME280;36308;46.312;25.288;2023-05-02T04:17:10;96635.66;;;5.80;63.81
50394;BME280;36308;46.312;25.288;2023-05-02T04:19:35;96640.56;;;5.83;63.56
50394;BME280;36308;46.312;25.288;2023-05-02T04:22:01;96636.44;;;5.87;64.09
50394;BME280;36308;46.312;25.288;2023-05-02T04:24:27;96637.66;;;5.91;63.85
50394;BME280;36308;46.312;25.288;2023-05-02T04:26:53;96637.88;;;5.96;64.25
50394;BME280;36308;46.312;25.288;2023-05-02T04:29:19;96643.38;;;6.01;64.15
50394;BME280;36308;46.312;25.288;2023-05-02T04:31:44;96643.78;;;6.05;63.94
50394;BME280;36308;46.312;25.288;2023-05-02T04:34:10;96642.09;;;6.11;64.21
50394;BME280;36308;46.312;25.288;2023-05-02T04:36:36;96637.13;;;6.14;64.03
50394;BME280;36308;46.312;25.288;2023-05-02T04:39:02;96637.13;;;6.21;64.35
50394;BME280;36308;46.312;25.288;2023-05-02T04:41:29;96633.81;;;6.25;64.01
50394;BME280;36308;46.312;25.288;2023-05-02T04:43:54;96639.91;;;6.33;63.93
50394;BME280;36308;46.312;25.288;2023-05-02T04:46:20;96640.91;;;6.38;64.15
50394;BME280;36308;46.312;25.288;2023-05-02T04:48:45;96651.78;;;6.43;64.26
50394;BME280;36308;46.312;25.288;2023-05-02T04:51:11;96646.38;;;6.50;64.20
50394;BME280;36308;46.312;25.288;2023-05-02T04:53:37;96645.28;;;6.58;64.22
50394;BME280;36308;46.312;25.288;2023-05-02T04:56:03;96648.72;;;6.65;64.09
50394;BME280;36308;46.312;25.288;2023-05-02T04:58:28;96642.50;;;6.71;64.01
50394;BME280;36308;46.312;25.288;2023-05-02T05:00:54;96637.91;;;6.78;63.90
50394;BME280;36308;46.312;25.288;2023-05-02T05:03:20;96637.44;;;6.88;63.53
50394;BME280;36308;46.312;25.288;2023-05-02T05:05:45;96637.38;;;6.95;63.35
50394;BME280;36308;46.312;25.288;2023-05-02T05:08:11;96641.63;;;7.02;63.35
50394;BME280;36308;46.312;25.288;2023-05-02T05:10:37;96640.53;;;7.10;63.23
50394;BME280;36308;46.312;25.288;2023-05-02T05:13:04;96640.25;;;7.18;63.28
50394;BME280;36308;46.312;25.288;2023-05-02T05:15:30;96640.78;;;7.27;62.92
50394;BME280;36308;46.312;25.288;2023-05-02T05:17:56;96640.69;;;7.34;63.26
50394;BME280;36308;46.312;25.288;2023-05-02T05:20:21;96642.06;;;7.43;63.13
50394;BME280;36308;46.312;25.288;2023-05-02T05:22:47;96640.72;;;7.52;63.28
50394;BME280;36308;46.312;25.288;2023-05-02T05:25:13;96642.03;;;7.61;62.77
50394;BME280;36308;46.312;25.288;2023-05-02T05:27:39;96636.16;;;7.71;62.49
50394;BME280;36308;46.312;25.288;2023-05-02T05:30:05;96637.72;;;7.79;63.00
50394;BME280;36308;46.312;25.288;2023-05-02T05:32:34;96641.50;;;7.89;62.85
50394;BME280;36308;46.312;25.288;2023-05-02T05:35:00;96649.59;;;8.01;62.39
50394;BME280;36308;46.312;25.288;2023-05-02T05:37:26;96643.94;;;8.09;62.40
50394;BME280;36308;46.312;25.288;2023-05-02T05:39:51;96636.75;;;8.22;62.22
50394;BME280;36308;46.312;25.288;2023-05-02T05:42:17;96644.00;;;8.33;61.82
50394;BME280;36308;46.312;25.288;2023-05-02T05:44:42;96629.84;;;8.44;62.00
50394;BME280;36308;46.312;25.288;2023-05-02T05:47:09;96629.66;;;8.58;61.62
50394;BME280;36308;46.312;25.288;2023-05-02T05:49:35;96628.63;;;8.70;61.79
50394;BME280;36308;46.312;25.288;2023-05-02T05:52:01;96628.66;;;8.82;61.09
50394;BME280;36308;46.312;25.288;2023-05-02T05:54:27;96625.72;;;8.96;61.41
50394;BME280;36308;46.312;25.288;2023-05-02T05:56:52;96627.13;;;9.10;61.54
50394;BME280;36308;46.312;25.288;2023-05-02T05:59:18;96631.22;;;9.24;61.95
50394;BME280;36308;46.312;25.288;2023-05-02T06:01:44;96620.81;;;9.40;61.96
50394;BME280;36308;46.312;25.288;2023-05-02T06:04:10;96634.56;;;9.55;60.86
50394;BME280;36308;46.312;25.288;2023-05-02T06:06:35;96630.81;;;9.68;61.31
50394;BME280;36308;46.312;25.288;2023-05-02T06:09:01;96629.00;;;9.85;60.76
50394;BME280;36308;46.312;25.288;2023-05-02T06:11:27;96632.81;;;10.01;60.90
50394;BME280;36308;46.312;25.288;2023-05-02T06:13:52;96632.03;;;10.18;60.57
50394;BME280;36308;46.312;25.288;2023-05-02T06:16:18;96628.03;;;10.32;59.69
50394;BME280;36308;46.312;25.288;2023-05-02T06:18:45;96624.56;;;10.48;59.23
50394;BME280;36308;46.312;25.288;2023-05-02T06:21:11;96627.28;;;10.65;59.19
50394;BME280;36308;46.312;25.288;2023-05-02T06:23:36;96630.53;;;10.84;58.87
50394;BME280;36308;46.312;25.288;2023-05-02T06:26:03;96626.53;;;11.04;57.32
50394;BME280;36308;46.312;25.288;2023-05-02T06:28:30;96627.91;;;11.23;56.89
50394;BME280;36308;46.312;25.288;2023-05-02T06:31:00;96624.94;;;11.42;56.59
50394;BME280;36308;46.312;25.288;2023-05-02T06:33:29;96626.28;;;11.61;55.68
50394;BME280;36308;46.312;25.288;2023-05-02T06:35:55;96605.22;;;11.80;54.54
50394;BME280;36308;46.312;25.288;2023-05-02T06:38:21;96611.19;;;12.04;53.29
50394;BME280;36308;46.312;25.288;2023-05-02T06:40:47;96612.47;;;12.24;53.32
50394;BME280;36308;46.312;25.288;2023-05-02T06:43:13;96613.78;;;12.43;52.81
50394;BME280;36308;46.312;25.288;2023-05-02T06:45:39;96604.78;;;12.65;50.93
50394;BME280;36308;46.312;25.288;2023-05-02T06:48:05;96606.28;;;12.83;49.78
50394;BME280;36308;46.312;25.288;2023-05-02T06:50:31;96598.59;;;13.02;49.53
50394;BME280;36308;46.312;25.288;2023-05-02T06:52:57;96606.56;;;13.24;49.04
50394;BME280;36308;46.312;25.288;2023-05-02T06:55:23;96601.34;;;13.49;48.09
50394;BME280;36308;46.312;25.288;2023-05-02T06:57:49;96595.50;;;13.68;46.69
50394;BME280;36308;46.312;25.288;2023-05-02T07:00:18;96601.84;;;13.99;46.15
50394;BME280;36308;46.312;25.288;2023-05-02T07:02:50;96604.59;;;14.25;45.40
50394;BME280;36308;46.312;25.288;2023-05-02T07:05:15;96617.09;;;14.51;44.86
50394;BME280;36308;46.312;25.288;2023-05-02T07:07:41;96609.03;;;14.72;44.16
50394;BME280;36308;46.312;25.288;2023-05-02T07:10:07;96613.38;;;14.88;43.77
50394;BME280;36308;46.312;25.288;2023-05-02T07:12:33;96620.97;;;15.07;43.30
50394;BME280;36308;46.312;25.288;2023-05-02T07:14:59;96606.88;;;15.25;43.61
50394;BME280;36308;46.312;25.288;2023-05-02T07:17:24;96610.59;;;15.45;42.81
50394;BME280;36308;46.312;25.288;2023-05-02T07:19:51;96615.97;;;15.65;42.54
50394;BME280;36308;46.312;25.288;2023-05-02T07:22:16;96610.25;;;15.82;41.50
50394;BME280;36308;46.312;25.288;2023-05-02T07:24:42;96608.00;;;16.05;41.45
50394;BME280;36308;46.312;25.288;2023-05-02T07:27:09;96615.50;;;16.23;41.59
50394;BME280;36308;46.312;25.288;2023-05-02T07:29:35;96616.19;;;16.44;41.09
50394;BME280;36308;46.312;25.288;2023-05-02T07:32:01;96607.38;;;16.63;40.05
50394;BME280;36308;46.312;25.288;2023-05-02T07:34:26;96612.72;;;16.83;40.24
50394;BME280;36308;46.312;25.288;2023-05-02T07:36:52;96603.03;;;17.01;39.06
50394;BME280;36308;46.312;25.288;2023-05-02T07:39:18;96602.31;;;17.25;38.92
50394;BME280;36308;46.312;25.288;2023-05-02T07:41:43;96618.72;;;17.38;39.02
50394;BME280;36308;46.312;25.288;2023-05-02T07:44:10;96606.59;;;17.55;38.72
50394;BME280;36308;46.312;25.288;2023-05-02T07:46:36;96608.56;;;17.73;38.17
50394;BME280;36308;46.312;25.288;2023-05-02T07:49:01;96607.84;;;17.92;37.40
50394;BME280;36308;46.312;25.288;2023-05-02T07:51:27;96610.88;;;18.09;36.71
50394;BME280;36308;46.312;25.288;2023-05-02T07:53:53;96615.03;;;18.26;36.74
50394;BME280;36308;46.312;25.288;2023-05-02T07:56:26;96607.47;;;18.42;36.21
50394;BME280;36308;46.312;25.288;2023-05-02T07:58:52;96614.03;;;18.60;35.95
50394;BME280;36308;46.312;25.288;2023-05-02T08:01:18;96611.06;;;18.75;36.27
50394;BME280;36308;46.312;25.288;2023-05-02T08:03:44;96622.72;;;19.00;36.01
50394;BME280;36308;46.312;25.288;2023-05-02T08:06:10;96629.75;;;19.20;35.21
50394;BME280;36308;46.312;25.288;2023-05-02T08:08:36;96614.13;;;19.39;35.07
50394;BME280;36308;46.312;25.288;2023-05-02T08:11:02;96615.38;;;19.61;34.91
50394;BME280;36308;46.312;25.288;2023-05-02T08:13:28;96620.47;;;19.81;34.34
50394;BME280;36308;46.312;25.288;2023-05-02T08:15:53;96609.56;;;19.95;33.79
50394;BME280;36308;46.312;25.288;2023-05-02T08:18:26;96622.69;;;20.21;33.78
50394;BME280;36308;46.312;25.288;2023-05-02T08:20:54;96627.72;;;20.41;33.01
50394;BME280;36308;46.312;25.288;2023-05-02T08:23:22;96620.81;;;20.57;32.05
50394;BME280;36308;46.312;25.288;2023-05-02T08:25:48;96618.13;;;20.80;31.28
50394;BME280;36308;46.312;25.288;2023-05-02T08:28:13;96625.16;;;20.95;30.49
50394;BME280;36308;46.312;25.288;2023-05-02T08:30:39;96616.06;;;21.08;30.18
50394;BME280;36308;46.312;25.288;2023-05-02T08:33:05;96623.28;;;21.27;29.87
50394;BME280;36308;46.312;25.288;2023-05-02T08:35:30;96618.03;;;21.39;29.90
50394;BME280;36308;46.312;25.288;2023-05-02T08:37:56;96617.81;;;21.49;29.09
50394;BME280;36308;46.312;25.288;2023-05-02T08:40:22;96611.13;;;21.64;29.26
50394;BME280;36308;46.312;25.288;2023-05-02T08:42:48;96621.03;;;21.83;29.47
50394;BME280;36308;46.312;25.288;2023-05-02T08:45:15;96616.91;;;21.94;29.36
50394;BME280;36308;46.312;25.288;2023-05-02T08:47:41;96625.63;;;22.13;29.12
50394;BME280;36308;46.312;25.288;2023-05-02T08:50:09;96620.72;;;22.33;28.95
50394;BME280;36308;46.312;25.288;2023-05-02T08:52:36;96618.66;;;22.47;29.10
50394;BME280;36308;46.312;25.288;2023-05-02T08:55:02;96614.66;;;22.62;28.39
50394;BME280;36308;46.312;25.288;2023-05-02T08:57:29;96618.19;;;22.71;25.77
50394;BME280;36308;46.312;25.288;2023-05-02T08:59:55;96622.56;;;22.81;26.60
50394;BME280;36308;46.312;25.288;2023-05-02T09:05:10;96626.13;;;23.08;27.09
50394;BME280;36308;46.312;25.288;2023-05-02T09:07:45;96618.03;;;23.20;27.48
50394;BME280;36308;46.312;25.288;2023-05-02T09:10:12;96619.13;;;23.36;27.54
50394;BME280;36308;46.312;25.288;2023-05-02T09:12:37;96623.16;;;23.48;26.88
50394;BME280;36308;46.312;25.288;2023-05-02T09:15:14;96614.56;;;23.58;26.05
50394;BME280;36308;46.312;25.288;2023-05-02T09:17:44;96615.03;;;23.69;25.73
50394;BME280;36308;46.312;25.288;2023-05-02T09:20:11;96610.47;;;23.82;26.11
50394;BME280;36308;46.312;25.288;2023-05-02T09:22:37;96616.28;;;23.89;25.37
50394;BME280;36308;46.312;25.288;2023-05-02T09:25:05;96615.25;;;24.02;25.33
50394;BME280;36308;46.312;25.288;2023-05-02T09:27:48;96615.50;;;24.18;24.80
50394;BME280;36308;46.312;25.288;2023-05-02T09:30:25;96607.47;;;24.34;24.84
50394;BME280;36308;46.312;25.288;2023-05-02T09:32:51;96613.72;;;24.43;24.19
50394;BME280;36308;46.312;25.288;2023-05-02T09:35:20;96609.97;;;24.48;23.98
50394;BME280;36308;46.312;25.288;2023-05-02T09:37:58;96598.47;;;24.54;24.02
50394;BME280;36308;46.312;25.288;2023-05-02T09:40:24;96611.75;;;24.73;24.60
50394;BME280;36308;46.312;25.288;2023-05-02T09:42:51;96609.19;;;24.89;24.46
50394;BME280;36308;46.312;25.288;2023-05-02T09:45:23;96588.13;;;24.93;24.07
50394;BME280;36308;46.312;25.288;2023-05-02T09:47:49;96598.81;;;24.95;22.95
50394;BME280;36308;46.312;25.288;2023-05-02T09:50:36;96604.59;;;25.14;23.81
50394;BME280;36308;46.312;25.288;2023-05-02T09:53:07;96607.69;;;25.34;25.12
50394;BME280;36308;46.312;25.288;2023-05-02T09:55:34;96606.72;;;25.51;24.29
50394;BME280;36308;46.312;25.288;2023-05-02T09:58:00;96592.97;;;25.63;24.79
50394;BME280;36308;46.312;25.288;2023-05-02T10:00:43;96592.06;;;25.84;24.44
50394;BME280;36308;46.312;25.288;2023-05-02T10:03:10;96594.38;;;26.06;25.09
50394;BME280;36308;46.312;25.288;2023-05-02T10:05:36;96586.25;;;26.22;25.54
50394;BME280;36308;46.312;25.288;2023-05-02T10:08:04;96594.97;;;26.36;24.01
50394;BME280;36308;46.312;25.288;2023-05-02T10:10:32;96588.63;;;26.48;23.18
50394;BME280;36308;46.312;25.288;2023-05-02T10:13:02;96583.31;;;26.55;23.23
50394;BME280;36308;46.312;25.288;2023-05-02T10:15:30;96581.34;;;26.68;23.49
50394;BME280;36308;46.312;25.288;2023-05-02T10:18:07;96584.53;;;26.83;23.00
50394;BME280;36308;46.312;25.288;2023-05-02T10:20:43;96595.63;;;26.98;22.53
50394;BME280;36308;46.312;25.288;2023-05-02T10:23:17;96592.63;;;27.04;21.83
50394;BME280;36308;46.312;25.288;2023-05-02T10:25:44;96584.78;;;27.06;21.98
50394;BME280;36308;46.312;25.288;2023-05-02T10:28:10;96573.06;;;27.09;21.50
50394;BME280;36308;46.312;25.288;2023-05-02T10:30:38;96587.75;;;27.25;21.80
50394;BME280;36308;46.312;25.288;2023-05-02T10:33:04;96583.91;;;27.30;21.08
50394;BME280;36308;46.312;25.288;2023-05-02T10:35:31;96575.75;;;27.33;21.27
50394;BME280;36308;46.312;25.288;2023-05-02T10:37:57;96571.47;;;27.36;21.34
50394;BME280;36308;46.312;25.288;2023-05-02T10:40:24;96570.84;;;27.42;21.72
50394;BME280;36308;46.312;25.288;2023-05-02T10:42:52;96566.94;;;27.44;21.54
50394;BME280;36308;46.312;25.288;2023-05-02T10:45:34;96562.03;;;27.53;21.18
50394;BME280;36308;46.312;25.288;2023-05-02T10:51:05;96562.50;;;27.87;21.79
50394;BME280;36308;46.312;25.288;2023-05-02T10:53:35;96568.03;;;28.02;22.68
50394;BME280;36308;46.312;25.288;2023-05-02T10:56:18;96553.81;;;28.20;22.33
50394;BME280;36308;46.312;25.288;2023-05-02T10:58:51;96563.25;;;28.35;22.36
50394;BME280;36308;46.312;25.288;2023-05-02T11:03:53;96553.84;;;28.55;22.11
50394;BME280;36308;46.312;25.288;2023-05-02T11:06:20;96563.19;;;28.67;22.02
50394;BME280;36308;46.312;25.288;2023-05-02T11:11:59;96559.09;;;28.80;21.17
50394;BME280;36308;46.312;25.288;2023-05-02T11:17:11;96544.41;;;28.95;21.27
50394;BME280;36308;46.312;25.288;2023-05-02T11:24:46;96535.38;;;29.18;20.72
50394;BME280;36308;46.312;25.288;2023-05-02T11:30:08;96540.44;;;29.35;20.82
50394;BME280;36308;46.312;25.288;2023-05-02T11:35:25;96540.38;;;29.55;20.47
50394;BME280;36308;46.312;25.288;2023-05-02T11:38:05;96542.41;;;29.58;20.27
50394;BME280;36308;46.312;25.288;2023-05-02T11:40:31;96535.69;;;29.59;20.36
50394;BME280;36308;46.312;25.288;2023-05-02T11:42:58;96537.75;;;29.62;20.11
50394;BME280;36308;46.312;25.288;2023-05-02T11:45:42;96525.03;;;29.61;20.65
50394;BME280;36308;46.312;25.288;2023-05-02T11:48:08;96530.41;;;29.73;20.13
50394;BME280;36308;46.312;25.288;2023-05-02T11:50:48;96515.09;;;29.79;19.88
50394;BME280;36308;46.312;25.288;2023-05-02T11:53:23;96507.19;;;29.81;19.97
50394;BME280;36308;46.312;25.288;2023-05-02T11:55:50;96517.97;;;29.87;19.28
50394;BME280;36308;46.312;25.288;2023-05-02T11:58:20;96509.25;;;29.85;18.79
50394;BME280;36308;46.312;25.288;2023-05-02T12:00:46;96499.94;;;29.73;18.59
50394;BME280;36308;46.312;25.288;2023-05-02T12:03:31;96507.88;;;29.75;18.88
50394;BME280;36308;46.312;25.288;2023-05-02T12:06:08;96515.00;;;29.76;19.20
50394;BME280;36308;46.312;25.288;2023-05-02T12:08:35;96504.78;;;29.80;19.29
50394;BME280;36308;46.312;25.288;2023-05-02T12:11:01;96504.84;;;29.84;19.35
50394;BME280;36308;46.312;25.288;2023-05-02T12:13:27;96501.78;;;29.89;19.75
50394;BME280;36308;46.312;25.288;2023-05-02T12:15:53;96508.91;;;29.90;18.94
50394;BME280;36308;46.312;25.288;2023-05-02T12:18:21;96473.84;;;29.74;18.65
50394;BME280;36308;46.312;25.288;2023-05-02T12:20:52;96491.50;;;29.89;19.41
50394;BME280;36308;46.312;25.288;2023-05-02T12:23:22;96493.06;;;29.90;19.47
50394;BME280;36308;46.312;25.288;2023-05-02T12:25:48;96487.88;;;29.85;19.42
50394;BME280;36308;46.312;25.288;2023-05-02T12:28:17;96492.47;;;29.77;19.28
50394;BME280;36308;46.312;25.288;2023-05-02T12:30:46;96487.97;;;29.69;18.89
50394;BME280;36308;46.312;25.288;2023-05-02T12:33:12;96477.09;;;29.57;19.32
50394;BME280;36308;46.312;25.288;2023-05-02T12:35:38;96481.91;;;29.60;19.75
50394;BME280;36308;46.312;25.288;2023-05-02T12:38:22;96483.47;;;29.61;20.31
50394;BME280;36308;46.312;25.288;2023-05-02T12:40:53;96483.13;;;29.62;20.05
50394;BME280;36308;46.312;25.288;2023-05-02T12:43:22;96480.06;;;29.68;19.38
50394;BME280;36308;46.312;25.288;2023-05-02T12:45:48;96475.75;;;29.70;18.79
50394;BME280;36308;46.312;25.288;2023-05-02T12:50:46;96469.47;;;29.73;18.84
50394;BME280;36308;46.312;25.288;2023-05-02T12:53:12;96464.34;;;29.75;19.59
50394;BME280;36308;46.312;25.288;2023-05-02T12:55:38;96457.22;;;29.74;19.44
50394;BME280;36308;46.312;25.288;2023-05-02T12:58:07;96463.19;;;29.76;19.08
50394;BME280;36308;46.312;25.288;2023-05-02T13:00:36;96450.13;;;29.77;19.68
50394;BME280;36308;46.312;25.288;2023-05-02T13:03:02;96454.81;;;29.73;19.81
50394;BME280;36308;46.312;25.288;2023-05-02T13:05:27;96450.72;;;29.67;19.21
50394;BME280;36308;46.312;25.288;2023-05-02T13:07:53;96454.28;;;29.67;19.30
50394;BME280;36308;46.312;25.288;2023-05-02T13:10:21;96451.63;;;29.71;19.55
50394;BME280;36308;46.312;25.288;2023-05-02T13:12:47;96445.28;;;29.70;19.49
50394;BME280;36308;46.312;25.288;2023-05-02T13:15:13;96443.78;;;29.76;19.85
50394;BME280;36308;46.312;25.288;2023-05-02T13:17:39;96442.25;;;29.79;19.51
50394;BME280;36308;46.312;25.288;2023-05-02T13:20:06;96439.09;;;29.80;19.03
50394;BME280;36308;46.312;25.288;2023-05-02T13:22:33;96430.25;;;29.71;19.36
50394;BME280;36308;46.312;25.288;2023-05-02T13:24:58;96438.75;;;29.86;19.21
50394;BME280;36308;46.312;25.288;2023-05-02T13:27:24;96437.59;;;29.87;18.63
50394;BME280;36308;46.312;25.288;2023-05-02T13:29:50;96439.09;;;29.80;18.07
50394;BME280;36308;46.312;25.288;2023-05-02T13:32:16;96438.25;;;29.76;17.78
50394;BME280;36308;46.312;25.288;2023-05-02T13:34:42;96438.91;;;29.70;18.31
50394;BME280;36308;46.312;25.288;2023-05-02T13:37:07;96438.84;;;29.66;18.17
50394;BME280;36308;46.312;25.288;2023-05-02T13:39:33;96431.59;;;29.58;17.74
50394;BME280;36308;46.312;25.288;2023-05-02T13:42:00;96428.41;;;29.56;17.74
50394;BME280;36308;46.312;25.288;2023-05-02T13:44:28;96429.19;;;29.56;18.47